Time;durP1;ratioP1;P1;durP2;ratioP2;P2;SDS_P1;SDS_P2;PMS_P1;PMS_P2;Temp;Humidity;BMP_temperature;BMP_pressure;BME280_temperature;BME280_humidity;BME280_pressure;Samples;Min_cycle;Max_cycle;Signal;HPM_P1;HPM_P2
2022/12/31 00:02:17;;;;;;;18.05;3.03;;;11.50;99.90;;;;;;5064473;28;20041;-78
2022/12/31 00:04:43;;;;;;;16.40;3.30;;;11.30;99.90;;;;;;5074193;28;20047;-79
2022/12/31 00:07:09;;;;;;;20.42;3.42;;;11.70;99.90;;;;;;5057288;28;20028;-79
2022/12/31 00:09:34;;;;;;;17.88;3.08;;;11.50;99.90;;;;;;5038325;28;20041;-78
2022/12/31 00:12:00;;;;;;;19.50;3.97;;;11.70;99.90;;;;;;5059786;28;20071;-78
2022/12/31 00:14:26;;;;;;;15.07;3.08;;;11.50;99.90;;;;;;5060702;28;20064;-78
2022/12/31 00:16:51;;;;;;;20.85;3.92;;;11.70;99.90;;;;;;5051610;28;20056;-78
2022/12/31 00:19:17;;;;;;;19.60;3.55;;;11.70;99.90;;;;;;5072424;28;20033;-78
2022/12/31 00:21:42;;;;;;;17.48;3.50;;;11.30;99.90;;;;;;5069187;28;20040;-78
2022/12/31 00:24:10;;;;;;;13.90;3.53;;;11.70;99.90;;;;;;5067098;28;20045;-79
2022/12/31 00:26:36;;;;;;;22.33;3.88;;;11.60;99.90;;;;;;5064591;28;20036;-78
2022/12/31 00:29:02;;;;;;;28.08;4.90;;;11.40;99.90;;;;;;5065363;28;20045;-79
2022/12/31 00:31:34;;;;;;;26.00;4.15;;;11.60;99.90;;;;;;5047851;28;20456;-80
2022/12/31 00:37:41;;;;;;;24.15;4.28;;;11.60;99.90;;;;;;5065433;28;20098;-79
2022/12/31 00:40:07;;;;;;;24.08;4.25;;;11.80;99.90;;;;;;5050045;28;20045;-78
2022/12/31 00:42:33;;;;;;;32.47;4.63;;;11.30;99.90;;;;;;5075692;28;20091;-79
2022/12/31 00:44:59;;;;;;;25.15;4.00;;;11.40;99.90;;;;;;5028775;28;20033;-80
2022/12/31 00:47:25;;;;;;;27.95;4.75;;;11.80;99.90;;;;;;5031949;28;20065;-77
2022/12/31 00:49:50;;;;;;;26.38;5.00;;;11.60;99.90;;;;;;5018821;28;20040;-77
2022/12/31 00:52:17;;;;;;;27.55;4.80;;;11.80;99.90;;;;;;5027577;28;20105;-79
2022/12/31 00:54:43;;;;;;;21.77;4.70;;;11.50;99.90;;;;;;5063238;28;20053;-77
2022/12/31 00:57:08;;;;;;;30.70;4.78;;;11.90;99.90;;;;;;5056058;28;20075;-77
2022/12/31 00:59:34;;;;;;;27.65;4.85;;;11.90;99.90;;;;;;5056243;28;20038;-78
2022/12/31 01:02:00;;;;;;;29.60;4.45;;;11.60;99.90;;;;;;5059578;28;20132;-78
2022/12/31 01:04:25;;;;;;;25.90;4.32;;;11.40;99.90;;;;;;5063056;28;20128;-77
2022/12/31 01:06:51;;;;;;;25.52;4.30;;;11.70;99.90;;;;;;5080751;28;20051;-77
2022/12/31 01:09:17;;;;;;;29.08;4.53;;;11.50;99.90;;;;;;5041655;28;20473;-79
2022/12/31 01:11:43;;;;;;;29.88;5.00;;;11.80;99.90;;;;;;5023004;28;20479;-79
2022/12/31 01:14:14;;;;;;;30.75;4.60;;;11.80;99.90;;;;;;5046357;28;20049;-77
2022/12/31 01:16:43;;;;;;;24.58;4.15;;;11.40;99.90;;;;;;5028994;28;20048;-77
2022/12/31 01:19:12;;;;;;;25.83;4.70;;;11.80;99.90;;;;;;5059203;28;20099;-80
2022/12/31 01:21:39;;;;;;;26.90;4.32;;;11.80;99.90;;;;;;5041508;28;20072;-81
2022/12/31 01:24:05;;;;;;;23.60;4.30;;;11.80;99.90;;;;;;5045870;28;20069;-77
2022/12/31 01:26:31;;;;;;;24.48;4.32;;;11.30;99.90;;;;;;5059110;28;20041;-79
2022/12/31 01:28:58;;;;;;;21.25;4.43;;;11.70;99.90;;;;;;5041823;28;20365;-78
2022/12/31 01:31:23;;;;;;;21.05;4.05;;;11.30;99.90;;;;;;5040573;28;20048;-77
2022/12/31 01:34:27;;;;;;;26.73;5.03;;;11.20;99.90;;;;;;5055642;28;20045;-76
2022/12/31 01:36:52;;;;;;;27.13;4.47;;;11.30;99.90;;;;;;5070597;28;20128;-76
2022/12/31 01:39:18;;;;;;;20.23;4.30;;;11.70;99.90;;;;;;5040052;28;20052;-77
2022/12/31 01:41:45;;;;;;;29.00;4.90;;;11.40;99.90;;;;;;5066489;28;20041;-78
2022/12/31 01:44:11;;;;;;;25.00;4.35;;;11.30;99.90;;;;;;5058499;28;20033;-76
2022/12/31 01:46:46;;;;;;;25.33;4.03;;;11.20;99.90;;;;;;5064366;28;20091;-79
2022/12/31 01:49:18;;;;;;;20.70;4.25;;;11.70;99.90;;;;;;5037179;28;20045;-78
2022/12/31 01:52:06;;;;;;;19.55;3.83;;;11.60;99.90;;;;;;5084607;28;20080;-78
2022/12/31 01:54:38;;;;;;;19.77;4.25;;;11.30;99.90;;;;;;5050311;28;20074;-79
2022/12/31 01:57:04;;;;;;;24.45;4.40;;;11.30;99.90;;;;;;5067548;28;20045;-79
2022/12/31 01:59:31;;;;;;;18.75;4.20;;;11.70;99.90;;;;;;5064861;28;20094;-80
2022/12/31 02:01:58;;;;;;;17.88;4.57;;;11.40;99.90;;;;;;5084076;28;20045;-78
2022/12/31 02:04:25;;;;;;;25.27;4.78;;;11.40;99.90;;;;;;5035521;28;20048;-79
2022/12/31 02:07:03;;;;;;;18.10;4.40;;;11.70;99.90;;;;;;5087472;28;20162;-78
2022/12/31 02:09:30;;;;;;;21.77;4.63;;;11.70;99.90;;;;;;5049531;28;20067;-81
2022/12/31 02:11:56;;;;;;;18.73;4.38;;;11.60;99.90;;;;;;5050268;28;20041;-79
2022/12/31 02:14:29;;;;;;;21.00;4.75;;;11.70;99.90;;;;;;5037237;28;20049;-81
2022/12/31 02:17:35;;;;;;;14.13;4.20;;;11.60;99.90;;;;;;5043732;28;20108;-80
2022/12/31 02:20:29;;;;;;;15.57;4.45;;;11.70;99.90;;;;;;5023403;28;20080;-77
2022/12/31 02:23:28;;;;;;;18.97;4.87;;;11.70;99.90;;;;;;5008165;28;20045;-78
2022/12/31 02:26:00;;;;;;;15.27;4.60;;;11.30;99.90;;;;;;5072958;28;20686;-77
2022/12/31 02:28:46;;;;;;;16.80;4.50;;;11.50;99.90;;;;;;5038540;28;20066;-77
2022/12/31 02:31:20;;;;;;;15.90;4.60;;;11.50;99.90;;;;;;5053425;28;20057;-77
2022/12/31 02:34:42;;;;;;;13.10;4.67;;;11.80;99.90;;;;;;5049143;28;20049;-80
2022/12/31 02:37:12;;;;;;;16.75;4.97;;;11.60;99.90;;;;;;5077173;28;20295;-79
2022/12/31 02:39:40;;;;;;;15.85;5.00;;;11.30;99.90;;;;;;5082385;28;20119;-81
2022/12/31 02:42:06;;;;;;;10.68;4.47;;;11.30;99.90;;;;;;5034568;28;20068;-79
2022/12/31 02:44:34;;;;;;;17.88;4.53;;;11.40;99.90;;;;;;5050132;28;20044;-81
2022/12/31 02:47:18;;;;;;;10.65;3.90;;;11.70;99.90;;;;;;5076790;28;20116;-80
2022/12/31 02:50:22;;;;;;;12.80;4.20;;;11.50;99.90;;;;;;5038602;28;20037;-79
2022/12/31 02:53:06;;;;;;;10.38;3.35;;;11.50;99.90;;;;;;5078538;28;20052;-79
2022/12/31 02:55:48;;;;;;;14.07;3.80;;;11.70;99.90;;;;;;5049005;28;20064;-78
2022/12/31 03:04:32;;;;;;;11.35;2.90;;;11.60;99.90;;;;;;5054079;28;20048;-80
2022/12/31 03:07:04;;;;;;;11.25;3.15;;;11.70;99.90;;;;;;5054145;28;20115;-78
2022/12/31 03:09:29;;;;;;;10.13;2.80;;;11.30;99.90;;;;;;5081101;28;20057;-79
2022/12/31 03:14:39;;;;;;;11.30;2.90;;;11.40;99.90;;;;;;5066292;28;20128;-79
2022/12/31 03:17:06;;;;;;;9.98;2.75;;;11.20;99.90;;;;;;5048830;28;20124;-80
2022/12/31 03:22:28;;;;;;;8.80;2.90;;;11.30;99.90;;;;;;5051432;28;20045;-80
2022/12/31 03:27:55;;;;;;;10.77;2.50;;;11.50;99.90;;;;;;5067367;28;20037;-80
2022/12/31 03:30:22;;;;;;;8.52;2.28;;;11.10;99.90;;;;;;5037612;28;20093;-83
2022/12/31 03:32:49;;;;;;;9.05;2.15;;;11.40;99.90;;;;;;5048964;28;20045;-80
2022/12/31 03:35:18;;;;;;;9.13;2.28;;;11.40;99.90;;;;;;5046717;28;20033;-80
2022/12/31 03:37:43;;;;;;;7.25;2.00;;;11.00;99.90;;;;;;5064458;28;20037;-78
2022/12/31 03:40:11;;;;;;;9.18;2.10;;;11.00;99.90;;;;;;5047569;28;20060;-77
2022/12/31 03:42:36;;;;;;;11.93;2.17;;;10.90;99.90;;;;;;5076430;28;20033;-79
2022/12/31 03:45:03;;;;;;;8.27;2.10;;;11.30;99.90;;;;;;5068430;28;20056;-82
2022/12/31 03:47:28;;;;;;;6.05;1.80;;;10.80;99.90;;;;;;5062401;28;20044;-80
2022/12/31 03:49:54;;;;;;;10.70;1.70;;;11.20;99.90;;;;;;5046908;28;20427;-81
2022/12/31 03:52:20;;;;;;;7.60;1.88;;;11.00;99.90;;;;;;5027589;28;20957;-79
2022/12/31 03:54:46;;;;;;;8.80;1.75;;;11.20;99.90;;;;;;5024838;28;20095;-81
2022/12/31 03:57:11;;;;;;;10.05;1.50;;;11.00;99.90;;;;;;5010327;28;20049;-79
2022/12/31 03:59:37;;;;;;;8.60;1.42;;;10.80;99.90;;;;;;5024541;28;20072;-79
2022/12/31 04:02:03;;;;;;;6.25;1.17;;;11.10;99.90;;;;;;5019088;28;20044;-81
2022/12/31 04:04:29;;;;;;;6.00;1.35;;;10.80;99.90;;;;;;5048348;28;20044;-81
2022/12/31 04:06:55;;;;;;;6.20;1.27;;;10.80;99.90;;;;;;5042942;28;20051;-77
2022/12/31 04:09:20;;;;;;;8.02;1.30;;;10.70;99.90;;;;;;5022321;28;20064;-78
2022/12/31 04:11:46;;;;;;;8.25;1.45;;;10.80;99.90;;;;;;5058893;28;20040;-79
2022/12/31 04:14:12;;;;;;;7.22;1.30;;;10.70;99.90;;;;;;5036040;28;20072;-78
2022/12/31 04:16:38;;;;;;;7.78;1.55;;;10.90;99.90;;;;;;5047742;28;20079;-80
2022/12/31 04:19:03;;;;;;;7.38;1.20;;;11.00;99.90;;;;;;5031532;28;20037;-78
2022/12/31 04:21:29;;;;;;;6.25;1.27;;;11.00;99.90;;;;;;5078143;28;20048;-79
2022/12/31 04:23:55;;;;;;;6.20;1.60;;;11.20;99.90;;;;;;5085467;28;20135;-79
2022/12/31 04:26:21;;;;;;;6.00;1.42;;;10.80;99.90;;;;;;5056984;28;20131;-83
2022/12/31 04:28:46;;;;;;;11.02;1.45;;;11.20;99.90;;;;;;5036172;28;20052;-82
2022/12/31 04:31:12;;;;;;;5.70;1.33;;;11.10;99.90;;;;;;5034831;28;20044;-79
2022/12/31 04:33:39;;;;;;;7.18;1.33;;;10.70;99.90;;;;;;5045327;28;20435;-79
2022/12/31 04:36:07;;;;;;;7.80;1.95;;;10.70;99.90;;;;;;5031412;28;20067;-81
2022/12/31 04:38:33;;;;;;;9.23;2.03;;;10.80;99.90;;;;;;5019061;28;20051;-79
2022/12/31 04:41:17;;;;;;;8.98;2.13;;;11.10;99.90;;;;;;5035659;28;20499;-79
2022/12/31 04:43:45;;;;;;;6.45;1.92;;;11.10;99.90;;;;;;5036409;28;20441;-79
2022/12/31 04:46:12;;;;;;;9.02;2.33;;;11.00;99.90;;;;;;5037433;28;20514;-82
2022/12/31 04:48:38;;;;;;;6.60;2.00;;;10.80;99.90;;;;;;5051562;28;20070;-79
2022/12/31 04:51:04;;;;;;;7.93;2.10;;;10.60;99.90;;;;;;5022724;28;20088;-79
2022/12/31 04:53:30;;;;;;;7.68;2.28;;;10.60;99.90;;;;;;5014615;28;20495;-78
2022/12/31 04:55:55;;;;;;;11.30;2.30;;;10.60;99.90;;;;;;5030704;28;20041;-79
2022/12/31 04:58:21;;;;;;;5.95;1.90;;;11.10;99.90;;;;;;5051252;28;20503;-78
2022/12/31 05:00:49;;;;;;;8.65;2.40;;;11.10;99.90;;;;;;5031927;28;20033;-82
2022/12/31 05:03:16;;;;;;;9.02;2.00;;;10.60;99.90;;;;;;5045452;28;20120;-80
2022/12/31 05:05:42;;;;;;;7.53;1.88;;;10.90;99.90;;;;;;5014185;28;20099;-77
2022/12/31 05:08:09;;;;;;;7.38;2.30;;;10.50;99.90;;;;;;5063982;28;20037;-80
2022/12/31 05:10:35;;;;;;;9.80;1.95;;;11.00;99.90;;;;;;5016899;28;20048;-78
2022/12/31 05:13:01;;;;;;;11.35;2.03;;;10.40;99.90;;;;;;5044491;28;20044;-79
2022/12/31 05:15:27;;;;;;;9.82;2.17;;;10.50;99.90;;;;;;5031355;28;20508;-82
2022/12/31 05:17:52;;;;;;;8.13;2.03;;;10.80;99.90;;;;;;5049910;28;20041;-82
2022/12/31 05:20:18;;;;;;;13.57;2.35;;;10.90;99.90;;;;;;5017122;28;20036;-79
2022/12/31 05:22:43;;;;;;;7.97;2.03;;;10.50;99.90;;;;;;5016329;28;20045;-80
2022/12/31 05:25:09;;;;;;;9.30;2.20;;;10.40;99.90;;;;;;5032173;28;20447;-80
2022/12/31 05:27:36;;;;;;;10.63;2.35;;;10.90;99.90;;;;;;5033172;28;20045;-80
2022/12/31 05:30:06;;;;;;;6.25;2.20;;;10.40;99.90;;;;;;5018325;28;20102;-84
2022/12/31 05:32:33;;;;;;;9.95;2.20;;;10.80;99.90;;;;;;5031547;28;20051;-80
2022/12/31 05:35:17;;;;;;;7.22;2.13;;;10.80;99.90;;;;;;5018012;28;20484;-79
2022/12/31 05:37:44;;;;;;;8.47;2.33;;;10.80;99.90;;;;;;5053660;28;20040;-78
2022/12/31 05:40:10;;;;;;;10.52;2.17;;;10.70;99.90;;;;;;5032975;28;20051;-80
2022/12/31 05:42:36;;;;;;;9.68;2.47;;;10.80;99.90;;;;;;5021970;28;20033;-80
2022/12/31 05:45:01;;;;;;;13.55;2.25;;;10.60;99.90;;;;;;5050686;28;20120;-81
2022/12/31 05:47:27;;;;;;;7.55;2.03;;;10.90;99.90;;;;;;5047572;28;20041;-80
2022/12/31 05:49:53;;;;;;;9.27;2.25;;;10.80;99.90;;;;;;5031680;28;20475;-77
2022/12/31 05:52:19;;;;;;;10.50;2.30;;;10.50;99.90;;;;;;5049692;28;20167;-80
2022/12/31 05:54:45;;;;;;;9.98;2.65;;;11.00;99.90;;;;;;5033398;28;20179;-81
2022/12/31 05:57:10;;;;;;;12.35;2.03;;;10.80;99.90;;;;;;5032319;28;20120;-82
2022/12/31 05:59:36;;;;;;;7.38;2.00;;;10.90;99.90;;;;;;5031794;28;20045;-78
2022/12/31 06:02:03;;;;;;;6.75;1.77;;;10.90;99.90;;;;;;5055676;28;20049;-78
2022/12/31 06:04:29;;;;;;;10.40;2.03;;;11.00;99.90;;;;;;5036672;28;20040;-79
2022/12/31 06:06:55;;;;;;;7.20;2.10;;;10.60;99.90;;;;;;5047567;28;20052;-81
2022/12/31 06:09:21;;;;;;;11.40;2.38;;;10.70;99.90;;;;;;5042747;28;20084;-81
2022/12/31 06:11:47;;;;;;;9.50;2.17;;;11.10;99.90;;;;;;5038725;28;20041;-80
2022/12/31 06:14:13;;;;;;;10.15;2.35;;;10.60;99.90;;;;;;5052628;28;20045;-81
2022/12/31 06:16:39;;;;;;;10.23;2.53;;;11.00;99.90;;;;;;5064691;28;20044;-79
2022/12/31 06:19:06;;;;;;;9.88;2.20;;;10.90;99.90;;;;;;5016136;28;20040;-79
2022/12/31 06:21:31;;;;;;;9.20;2.25;;;10.70;99.90;;;;;;5067327;28;20060;-79
2022/12/31 06:23:57;;;;;;;8.50;1.92;;;10.70;99.90;;;;;;5049554;28;20518;-79
2022/12/31 06:26:24;;;;;;;5.20;1.55;;;10.70;99.90;;;;;;5062427;28;20487;-79
2022/12/31 06:28:50;;;;;;;5.95;1.52;;;10.60;99.90;;;;;;5032755;28;20048;-78
2022/12/31 06:31:16;;;;;;;8.00;1.45;;;10.40;99.90;;;;;;5066976;28;20043;-79
2022/12/31 06:33:43;;;;;;;5.28;1.20;;;10.30;99.90;;;;;;5036452;28;20037;-77
2022/12/31 06:36:13;;;;;;;5.50;1.00;;;10.50;99.90;;;;;;5046130;28;20041;-81
2022/12/31 06:38:40;;;;;;;4.72;0.73;;;10.70;99.90;;;;;;5042906;28;20050;-79
2022/12/31 06:41:09;;;;;;;3.25;0.52;;;10.60;99.90;;;;;;5065759;28;20124;-81
2022/12/31 06:43:35;;;;;;;5.90;0.70;;;10.60;99.90;;;;;;5047650;28;20039;-82
2022/12/31 06:46:06;;;;;;;6.32;0.80;;;10.10;99.90;;;;;;5011847;28;20423;-78
2022/12/31 06:48:34;;;;;;;5.28;0.90;;;10.10;99.90;;;;;;5044278;28;20059;-77
2022/12/31 06:51:08;;;;;;;5.35;0.80;;;10.20;99.90;;;;;;5029470;28;20056;-77
2022/12/31 06:53:34;;;;;;;6.78;0.82;;;10.00;99.90;;;;;;5064425;28;20464;-79
2022/12/31 06:56:14;;;;;;;8.05;1.52;;;10.40;99.90;;;;;;5017844;28;20049;-79
2022/12/31 06:58:40;;;;;;;8.73;1.27;;;10.30;99.90;;;;;;5024732;28;20092;-80
2022/12/31 07:01:36;;;;;;;4.43;1.42;;;10.10;99.90;;;;;;5046064;28;20048;-78
2022/12/31 07:04:26;;;;;;;5.00;1.80;;;10.20;99.90;;;;;;5013080;28;20107;-78
2022/12/31 07:07:30;;;;;;;3.67;2.30;;;10.50;99.90;;;;;;5028426;28;20053;-80
2022/12/31 07:10:20;;;;;;;6.50;3.53;;;10.60;99.90;;;;;;5028562;28;20507;-77
2022/12/31 07:12:51;;;;;;;8.68;4.05;;;10.20;99.90;;;;;;5030196;28;20037;-78
2022/12/31 07:15:51;;;;;;;7.15;4.10;;;10.60;99.90;;;;;;5042805;28;20389;-79
2022/12/31 07:18:44;;;;;;;6.40;3.95;;;10.80;99.90;;;;;;5044694;28;20045;-77
2022/12/31 07:21:16;;;;;;;6.05;3.70;;;10.80;99.90;;;;;;5023209;28;20041;-80
2022/12/31 07:23:42;;;;;;;6.55;3.80;;;10.80;99.90;;;;;;5029592;28;21966;-81
2022/12/31 07:26:24;;;;;;;6.20;3.70;;;10.40;99.90;;;;;;5060563;28;20420;-78
2022/12/31 07:29:22;;;;;;;5.80;3.30;;;10.20;99.90;;;;;;5013244;28;20041;-78
2022/12/31 07:32:20;;;;;;;5.47;3.40;;;10.50;99.90;;;;;;5042200;28;20230;-80
2022/12/31 07:34:58;;;;;;;6.38;3.10;;;10.60;99.90;;;;;;5047053;28;20041;-77
2022/12/31 07:37:48;;;;;;;4.93;3.10;;;10.60;99.90;;;;;;5023726;28;20048;-82
2022/12/31 07:40:31;;;;;;;5.93;3.20;;;10.70;99.90;;;;;;5034538;28;20106;-82
2022/12/31 07:43:27;;;;;;;4.63;2.70;;;10.30;99.90;;;;;;5060345;28;20036;-78
2022/12/31 07:46:07;;;;;;;5.22;2.65;;;10.40;99.90;;;;;;5003522;28;20059;-77
2022/12/31 07:48:34;;;;;;;4.28;2.67;;;10.60;99.90;;;;;;5027457;28;20509;-80
2022/12/31 07:51:00;;;;;;;3.15;2.00;;;10.70;99.90;;;;;;5042010;28;20056;-77
2022/12/31 07:53:26;;;;;;;6.50;2.17;;;10.30;99.90;;;;;;5044539;28;20049;-78
2022/12/31 07:56:00;;;;;;;4.15;2.10;;;10.20;99.90;;;;;;5035699;28;20463;-79
2022/12/31 07:58:38;;;;;;;7.30;2.15;;;10.20;99.90;;;;;;5047257;28;20057;-78
2022/12/31 08:01:08;;;;;;;3.90;2.45;;;10.30;99.90;;;;;;5035240;28;20388;-81
2022/12/31 08:04:01;;;;;;;6.00;2.50;;;10.70;99.90;;;;;;5034502;28;20069;-78
2022/12/31 08:06:39;;;;;;;4.05;2.33;;;10.70;99.90;;;;;;5071319;28;20047;-81
2022/12/31 08:09:17;;;;;;;3.20;2.17;;;10.70;99.90;;;;;;5034141;28;20048;-80
2022/12/31 08:11:58;;;;;;;3.75;2.50;;;10.70;99.90;;;;;;5033174;28;20033;-78
2022/12/31 08:14:24;;;;;;;4.50;2.83;;;10.20;99.90;;;;;;5015258;28;20056;-77
2022/12/31 08:16:50;;;;;;;4.63;3.47;;;10.70;99.90;;;;;;5033924;28;20492;-78
2022/12/31 08:19:29;;;;;;;4.55;3.92;;;10.40;99.90;;;;;;5050263;28;20083;-78
2022/12/31 08:22:26;;;;;;;4.40;3.20;;;10.20;99.90;;;;;;5034617;28;20399;-79
2022/12/31 08:25:14;;;;;;;4.30;3.08;;;10.70;99.90;;;;;;5034461;28;20506;-77
2022/12/31 08:27:54;;;;;;;3.97;2.30;;;10.40;99.90;;;;;;5053037;28;20079;-78
2022/12/31 08:30:22;;;;;;;2.35;2.13;;;10.70;99.90;;;;;;5018463;28;20152;-80
2022/12/31 08:32:57;;;;;;;3.25;2.30;;;10.70;99.90;;;;;;5031628;28;20044;-81
2022/12/31 08:35:31;;;;;;;2.58;1.80;;;10.30;99.90;;;;;;5027335;28;20045;-79
2022/12/31 08:38:24;;;;;;;2.03;1.80;;;10.30;99.90;;;;;;5063486;28;20041;-80
2022/12/31 08:41:14;;;;;;;2.97;1.33;;;10.50;99.90;;;;;;5018064;28;20045;-81
2022/12/31 08:44:17;;;;;;;3.15;1.30;;;11.00;99.90;;;;;;5042290;28;20044;-80
2022/12/31 08:46:54;;;;;;;2.22;1.20;;;10.90;99.90;;;;;;5034999;28;20056;-77
2022/12/31 08:49:20;;;;;;;1.98;1.30;;;10.90;99.90;;;;;;5025334;28;20451;-77
2022/12/31 08:51:46;;;;;;;1.70;1.60;;;10.60;99.90;;;;;;5045279;28;20171;-78
2022/12/31 08:54:12;;;;;;;2.25;1.80;;;10.80;99.90;;;;;;5029438;28;20059;-77
2022/12/31 08:57:06;;;;;;;2.10;1.90;;;11.20;99.90;;;;;;5042664;28;20386;-79
2022/12/31 08:59:31;;;;;;;2.42;2.22;;;11.20;99.90;;;;;;5037418;28;20060;-78
2022/12/31 09:02:06;;;;;;;3.25;2.72;;;11.20;99.90;;;;;;5018915;28;20029;-81
2022/12/31 09:04:58;;;;;;;;;;;11.40;99.90;;;;;;5049484;28;20448;-79
2022/12/31 09:07:39;;;;;;;3.20;2.90;;;11.30;99.90;;;;;;5044714;28;19940;-79
2022/12/31 09:10:27;;;;;;;4.20;3.40;;;11.00;99.90;;;;;;5021529;28;20051;-77
2022/12/31 09:13:23;;;;;;;4.07;3.60;;;11.60;99.90;;;;;;5012145;28;20140;-77
2022/12/31 09:16:07;;;;;;;4.47;3.50;;;11.60;99.90;;;;;;5022252;28;20082;-80
2022/12/31 09:18:37;;;;;;;3.78;3.47;;;11.30;99.90;;;;;;5056673;28;20199;-79
2022/12/31 09:21:03;;;;;;;5.18;3.75;;;11.90;99.90;;;;;;5011263;28;20067;-80
2022/12/31 09:23:30;;;;;;;3.80;3.17;;;11.40;99.90;;;;;;5014270;28;20570;-77
2022/12/31 09:26:22;;;;;;;5.28;3.67;;;11.90;99.90;;;;;;5038611;28;20041;-79
2022/12/31 09:28:51;;;;;;;5.95;2.97;;;12.00;99.90;;;;;;5008491;28;20044;-78
2022/12/31 09:31:30;;;;;;;5.60;3.03;;;12.10;99.90;;;;;;5053623;28;20072;-80
2022/12/31 09:34:11;;;;;;;4.85;3.28;;;12.00;99.90;;;;;;5054667;28;20075;-80
2022/12/31 09:36:54;;;;;;;7.20;2.90;;;11.70;99.90;;;;;;5035272;28;20076;-81
2022/12/31 09:39:42;;;;;;;4.15;2.80;;;11.80;99.90;;;;;;5053456;28;20041;-80
2022/12/31 09:42:08;;;;;;;6.05;2.63;;;12.10;99.90;;;;;;5062858;28;20148;-80
2022/12/31 09:44:58;;;;;;;4.78;2.13;;;12.10;99.90;;;;;;5052136;28;20183;-80
2022/12/31 09:48:02;;;;;;;3.70;1.95;;;12.10;99.90;;;;;;5059981;28;20127;-80
2022/12/31 09:50:34;;;;;;;5.50;2.03;;;12.20;99.90;;;;;;5038802;28;20150;-77
2022/12/31 09:53:15;;;;;;;4.57;1.73;;;12.10;99.90;;;;;;5047503;28;20049;-82
2022/12/31 09:56:19;;;;;;;3.15;1.90;;;12.40;99.90;;;;;;5044784;28;20045;-82
2022/12/31 09:59:20;;;;;;;6.47;2.08;;;12.50;99.90;;;;;;5026812;28;20133;-79
2022/12/31 10:02:01;;;;;;;3.47;1.60;;;12.70;99.90;;;;;;5013382;28;20053;-79
2022/12/31 10:05:07;;;;;;;3.53;1.80;;;12.60;99.90;;;;;;5016282;28;20171;-81
2022/12/31 10:07:50;;;;;;;5.38;1.85;;;12.80;99.90;;;;;;4992521;28;20058;-82
2022/12/31 10:10:33;;;;;;;5.32;1.30;;;12.30;99.90;;;;;;5010547;28;20409;-79
2022/12/31 10:13:35;;;;;;;4.00;1.10;;;12.50;99.90;;;;;;4988761;28;20049;-78
2022/12/31 10:16:14;;;;;;;3.60;1.02;;;12.80;99.90;;;;;;4990030;28;20410;-79
2022/12/31 10:18:45;;;;;;;5.28;1.05;;;12.60;99.90;;;;;;5018647;28;20046;-81
2022/12/31 10:21:50;;;;;;;7.80;1.30;;;12.60;99.90;;;;;;4996057;28;20475;-80
2022/12/31 10:24:27;;;;;;;7.40;1.33;;;12.70;99.90;;;;;;5012761;28;20107;-81
2022/12/31 10:27:15;;;;;;;9.02;1.65;;;13.10;99.90;;;;;;5010219;28;20542;-84
2022/12/31 10:30:10;;;;;;;4.80;1.45;;;13.10;99.90;;;;;;4971608;28;20060;-82
2022/12/31 10:32:58;;;;;;;9.15;1.70;;;12.90;99.90;;;;;;4950084;28;20074;-81
2022/12/31 10:35:42;;;;;;;11.55;1.65;;;13.10;99.90;;;;;;4962156;28;20090;-81
2022/12/31 10:38:47;;;;;;;10.23;1.67;;;13.10;99.90;;;;;;4943694;28;20043;-79
2022/12/31 10:41:37;;;;;;;9.75;2.08;;;13.00;99.90;;;;;;4966993;28;20071;-82
2022/12/31 10:44:23;;;;;;;10.63;1.80;;;13.30;99.90;;;;;;4935303;28;20042;-79
2022/12/31 10:47:03;;;;;;;12.57;5.95;;;13.30;99.90;;;;;;4947353;28;21585;-78
2022/12/31 10:49:49;;;;;;;10.15;1.42;;;13.10;99.90;;;;;;4955953;28;20047;-81
2022/12/31 10:52:27;;;;;;;9.13;1.63;;;13.20;99.90;;;;;;4981095;28;22548;-81
2022/12/31 10:55:23;;;;;;;10.73;1.80;;;13.10;99.90;;;;;;4960347;28;20433;-78
2022/12/31 10:58:07;;;;;;;9.82;1.73;;;13.20;99.90;;;;;;4950394;28;20193;-83
2022/12/31 11:01:16;;;;;;;11.18;1.90;;;13.20;99.90;;;;;;4946240;28;20051;-79
2022/12/31 11:04:00;;;;;;;9.25;1.77;;;13.30;99.90;;;;;;4895487;29;21069;-80
2022/12/31 11:06:45;;;;;;;12.65;2.17;;;13.40;99.90;;;;;;4922117;29;20067;-83
2022/12/31 11:09:23;;;;;;;10.95;1.77;;;13.20;99.90;;;;;;4937446;28;20058;-80
2022/12/31 11:12:10;;;;;;;15.05;2.00;;;13.30;99.90;;;;;;4966430;28;20054;-83
2022/12/31 11:14:54;;;;;;;11.15;2.15;;;13.30;99.90;;;;;;4950542;28;20397;-82
2022/12/31 11:17:31;;;;;;;13.07;3.53;;;13.30;99.90;;;;;;4973097;28;20117;-83
2022/12/31 11:20:23;;;;;;;17.23;2.45;;;13.50;99.90;;;;;;4965306;28;20086;-79
2022/12/31 11:23:31;;;;;;;31.08;16.98;;;13.50;99.90;;;;;;4972307;28;20494;-81
2022/12/31 11:26:19;;;;;;;15.07;2.28;;;13.30;99.90;;;;;;4975791;28;20541;-80
2022/12/31 11:28:57;;;;;;;14.95;2.63;;;13.50;99.90;;;;;;4975540;28;20049;-80
2022/12/31 11:31:48;;;;;;;9.50;2.13;;;13.60;99.90;;;;;;4958339;28;20166;-81
2022/12/31 11:34:42;;;;;;;17.20;2.90;;;13.50;99.90;;;;;;4972631;28;20098;-81
2022/12/31 11:37:30;;;;;;;15.52;3.03;;;13.40;99.90;;;;;;5022951;28;20368;-80
2022/12/31 11:40:05;;;;;;;14.90;2.55;;;13.40;99.90;;;;;;5035650;28;20051;-81
2022/12/31 11:42:45;;;;;;;20.33;4.20;;;13.70;99.90;;;;;;5052230;28;20120;-83
2022/12/31 11:45:21;;;;;;;27.67;12.10;;;13.60;99.90;;;;;;5034089;28;20037;-81
2022/12/31 11:48:15;;;;;;;14.05;2.75;;;13.40;99.90;;;;;;5022318;28;20580;-82
2022/12/31 11:51:11;;;;;;;17.48;6.32;;;13.70;99.90;;;;;;5034020;28;20053;-80
2022/12/31 11:54:11;;;;;;;16.08;2.50;;;13.30;99.90;;;;;;5034393;28;20486;-82
2022/12/31 11:56:40;;;;;;;14.52;4.20;;;13.60;99.90;;;;;;5031171;28;20103;-83
2022/12/31 11:59:10;;;;;;;16.98;3.70;;;13.40;99.90;;;;;;5017075;28;20064;-84
2022/12/31 12:01:59;;;;;;;12.23;2.50;;;13.70;99.90;;;;;;5028224;28;20045;-81
2022/12/31 12:04:28;;;;;;;22.15;8.68;;;13.70;99.90;;;;;;5005331;28;20132;-84
2022/12/31 12:06:54;;;;;;;6.63;1.90;;;13.70;99.90;;;;;;5070082;28;20052;-80
2022/12/31 12:09:29;;;;;;;6.15;1.75;;;13.70;99.90;;;;;;5065781;28;20041;-81
2022/12/31 12:12:03;;;;;;;7.28;2.00;;;13.50;99.90;;;;;;5031761;28;20053;-82
2022/12/31 12:14:36;;;;;;;;;;;13.40;99.90;;;;;;5049812;28;20055;-83
2022/12/31 12:17:06;;;;;;;8.82;2.95;;;13.20;99.90;;;;;;5055922;28;19969;-83
2022/12/31 12:19:34;;;;;;;9.60;1.98;;;13.70;99.90;;;;;;5046167;28;20043;-81
2022/12/31 12:22:13;;;;;;;16.10;3.25;;;13.40;99.90;;;;;;5043551;28;20040;-79
2022/12/31 12:24:50;;;;;;;10.23;2.28;;;13.40;99.90;;;;;;5042099;28;20033;-84
2022/12/31 12:27:23;;;;;;;16.75;2.47;;;13.70;99.90;;;;;;5024863;28;20041;-84
2022/12/31 12:29:49;;;;;;;18.17;2.80;;;13.40;99.90;;;;;;5024568;28;20182;-82
2022/12/31 12:32:18;;;;;;;18.65;5.35;;;13.50;99.90;;;;;;5026259;28;20152;-80
2022/12/31 12:34:43;;;;;;;15.60;3.13;;;13.40;99.90;;;;;;5057312;28;20052;-78
2022/12/31 12:37:31;;;;;;;21.23;3.47;;;13.30;99.90;;;;;;5024134;28;20385;-80
2022/12/31 12:40:17;;;;;;;16.65;3.35;;;13.40;99.90;;;;;;5044142;28;20064;-80
2022/12/31 12:42:52;;;;;;;42.03;23.42;;;13.50;99.90;;;;;;5047288;28;20057;-80
2022/12/31 12:45:19;;;;;;;;;;;13.20;99.90;;;;;;4999361;28;20077;-83
2022/12/31 12:47:47;;;;;;;20.60;5.00;;;13.60;99.90;;;;;;5064405;28;20368;-79
2022/12/31 12:50:19;;;;;;;17.88;3.33;;;13.20;99.90;;;;;;5047516;28;20049;-80
2022/12/31 12:52:58;;;;;;;17.25;3.97;;;13.30;99.90;;;;;;5062088;28;20045;-80
2022/12/31 12:55:36;;;;;;;18.08;5.78;;;13.60;99.90;;;;;;5014024;28;20047;-81
2022/12/31 12:58:23;;;;;;;18.67;3.40;;;13.30;99.90;;;;;;5049798;28;20437;-81
2022/12/31 13:01:19;;;;;;;31.83;12.13;;;13.20;99.90;;;;;;5030863;28;20041;-78
2022/12/31 13:04:04;;;;;;;18.17;4.85;;;13.30;99.90;;;;;;5025532;28;20044;-78
2022/12/31 13:07:09;;;;;;;60.03;36.93;;;13.70;99.90;;;;;;5028120;28;20140;-78
2022/12/31 13:09:52;;;;;;;18.58;4.63;;;13.60;99.90;;;;;;5043591;28;20061;-79
2022/12/31 13:12:47;;;;;;;23.33;7.00;;;13.70;99.90;;;;;;5019920;28;20482;-79
2022/12/31 13:15:21;;;;;;;23.13;5.63;;;13.70;99.90;;;;;;5036252;28;20049;-81
2022/12/31 13:18:06;;;;;;;16.80;4.53;;;13.60;99.90;;;;;;5026831;28;20057;-83
2022/12/31 13:20:44;;;;;;;14.85;4.30;;;13.30;99.90;;;;;;5010411;28;20041;-81
2022/12/31 13:24:02;;;;;;;14.55;4.30;;;13.20;99.90;;;;;;5007561;28;20380;-80
2022/12/31 13:26:40;;;;;;;16.40;3.05;;;13.30;99.90;;;;;;4922826;29;20083;-79
2022/12/31 13:29:23;;;;;;;18.27;4.15;;;13.10;99.90;;;;;;4946415;28;20067;-79
2022/12/31 13:31:50;;;;;;;14.88;3.67;;;13.50;99.90;;;;;;4944057;28;20056;-78
2022/12/31 13:34:22;;;;;;;20.38;2.80;;;13.10;99.90;;;;;;4912207;29;20043;-78
2022/12/31 13:36:51;;;;;;;13.23;3.25;;;13.10;99.90;;;;;;4930542;29;20032;-77
2022/12/31 13:39:27;;;;;;;16.65;2.72;;;13.10;99.90;;;;;;4927912;29;20052;-78
2022/12/31 13:42:19;;;;;;;13.98;2.40;;;13.30;99.90;;;;;;4900807;29;20051;-81
2022/12/31 13:45:01;;;;;;;14.88;2.75;;;13.00;99.90;;;;;;4929102;29;20595;-83